Terminal Aerodrome Forecast
Issued by NWS Jackson, MS

Home | Current Version | Previous Version | Text Only | Print | Product List | Glossary On
Versions: 1 2 3 4 5 6 7 8 9 10 11 12 13 14 15 16
000
FTUS44 KJAN 011100 RRA
TAFGWO
TAF
KGWO 011154Z 0112/0212 18015G23KT P6SM VCSH SCT030 BKN060 OVC090
     FM011800 20014G23KT P6SM -SHRA BKN015 BKN025
      TEMPO 0122/0201 4SM TSRA OVC015CB
     FM020100 29018G27KT P6SM BKN030=

USA.gov is the U.S. government's official web portal to all federal, state and local government web resources and services.